| time (UTC) | temp C | wind direction | speed KPH | gust KPH | rain 1hr cm | rain 24hr cm | rain mn cm | humidity % | barometer mb |
| 20260901110003 | 22 | 157 | 1.6 | 6.4 | 0.00 | 0.03 | 0.00 | 98 | 1044.9 |
| 20260901105613 | 22 | 140 | 1.6 | 4.8 | 0.00 | 0.03 | 0.00 | 98 | 1044.7 |
| 20260901104713 | 22 | 182 | 3.2 | 6.4 | 0.00 | 0.03 | 0.00 | 98 | 1044.7 |
| 20260901103603 | 22 | 128 | 1.6 | 4.8 | 0.00 | 0.03 | 0.00 | 98 | 1044.6 |
| 20260901102703 | 22 | 178 | 1.6 | 8.0 | 0.00 | 0.05 | 0.00 | 98 | 1044.9 |
| 20260901101803 | 22 | 168 | 3.2 | 8.0 | 0.00 | 0.05 | 0.00 | 97 | 1044.6 |
| 20260901100903 | 23 | 197 | 1.6 | 4.8 | 0.00 | 0.05 | 0.00 | 97 | 1044.6 |
| 20260901100003 | 23 | 175 | 1.6 | 4.8 | 0.00 | 0.05 | 0.00 | 96 | 1044.7 |
| 20260901095403 | 23 | 360 | 1.6 | 6.4 | 0.00 | 0.05 | 0.00 | 96 | 1044.7 |
| 20260901094503 | 23 | 195 | 3.2 | 8.0 | 0.00 | 0.05 | 0.00 | 96 | 1044.7 |
| 20260901093603 | 23 | 198 | 3.2 | 8.0 | 0.00 | 0.05 | 0.00 | 96 | 1044.7 |
| 20260901092703 | 23 | 184 | 1.6 | 6.4 | 0.00 | 0.05 | 0.00 | 96 | 1044.5 |
| 20260901092014 | 23 | 227 | 1.6 | 6.4 | 0.00 | 0.05 | 0.00 | 96 | 1044.6 |
| 20260901090903 | 23 | 186 | 3.2 | 6.4 | 0.00 | 0.05 | 0.00 | 96 | 1044.5 |
| 20260901090003 | 23 | 195 | 1.6 | 8.0 | 0.00 | 0.05 | 0.00 | 96 | 1044.6 |
| 20260901085615 | 23 | 208 | 1.6 | 8.0 | 0.00 | 0.05 | 0.00 | 96 | 1044.7 |
| 20260901084714 | 23 | 333 | 3.2 | 8.0 | 0.00 | 0.05 | 0.00 | 96 | 1044.4 |
| 20260901083603 | 23 | 192 | 1.6 | 6.4 | 0.00 | 0.05 | 0.00 | 96 | 1044.5 |
| 20260901082912 | 23 | 180 | 3.2 | 8.0 | 0.00 | 0.05 | 0.00 | 95 | 1044.6 |
| 20260901081803 | 23 | 181 | 4.8 | 12.9 | 0.00 | 0.05 | 0.00 | 95 | 1044.5 |
| 20260901080904 | 23 | 199 | 1.6 | 6.4 | 0.00 | 0.05 | 0.00 | 95 | 1044.5 |
| 20260901080003 | 23 | 1 | 3.2 | 9.7 | 0.00 | 0.05 | 0.00 | 94 | 1044.6 |
| 20260901075403 | 23 | 258 | 3.2 | 9.7 | 0.00 | 0.05 | 0.00 | 94 | 1044.7 |
| 20260901074503 | 23 | 204 | 4.8 | 9.7 | 0.00 | 0.05 | 0.00 | 94 | 1044.4 |
| 20260901073603 | 23 | 179 | 3.2 | 9.7 | 0.00 | 0.05 | 0.00 | 94 | 1044.6 |
| 20260901072703 | 23 | 191 | 4.8 | 9.7 | 0.00 | 0.05 | 0.00 | 94 | 1044.6 |
| 20260901071804 | 23 | 198 | 4.8 | 9.7 | 0.00 | 0.05 | 0.00 | 94 | 1044.5 |
| 20260901070903 | 23 | 204 | 3.2 | 4.8 | 0.00 | 0.05 | 0.00 | 94 | 1044.4 |
| 20260901070003 | 23 | 202 | 3.2 | 4.8 | 0.00 | 0.05 | 0.00 | 94 | 1044.3 |
| 20260901065614 | 23 | 201 | 3.2 | 4.8 | 0.00 | 0.05 | 0.00 | 94 | 1044.2 |
| 20260901064503 | 23 | 201 | 3.2 | 4.8 | 0.00 | 0.05 | 0.00 | 94 | 1044.3 |
| 20260901063603 | 23 | 205 | 3.2 | 4.8 | 0.00 | 0.05 | 0.00 | 93 | 1044.4 |
| 20260901062703 | 23 | 204 | 3.2 | 4.8 | 0.00 | 0.05 | 0.00 | 94 | 1044.4 |
| 20260901061803 | 23 | 201 | 3.2 | 4.8 | 0.00 | 0.05 | 0.00 | 94 | 1044.3 |
| 20260901061114 | 23 | 198 | 3.2 | 3.2 | 0.00 | 0.05 | 0.00 | 94 | 1044.3 |
| 20260901060003 | 23 | 202 | 1.6 | 3.2 | 0.00 | 0.05 | 0.00 | 93 | 1044.3 |
| 20260901055403 | 24 | 202 | 1.6 | 3.2 | 0.00 | 0.05 | 0.00 | 93 | 1044.4 |
| 20260901054503 | 24 | 200 | 1.6 | 3.2 | 0.00 | 0.05 | 0.00 | 93 | 1044.2 |
| 20260901053814 | 24 | 209 | 1.6 | 3.2 | 0.00 | 0.05 | 0.00 | 93 | 1044.3 |
| 20260901052913 | 24 | 204 | 1.6 | 3.2 | 0.00 | 0.05 | 0.00 | 93 | 1044.4 |
| 20260901051803 | 24 | 204 | 1.6 | 3.2 | 0.00 | 0.05 | 0.00 | 93 | 1044.2 |
| 20260901050903 | 24 | 208 | 3.2 | 4.8 | 0.00 | 0.05 | 0.00 | 93 | 1044.4 |
| 20260901050003 | 24 | 204 | 3.2 | 4.8 | 0.00 | 0.05 | 0.00 | 92 | 1044.3 |
| 20260901045403 | 24 | 201 | 3.2 | 4.8 | 0.00 | 0.05 | 0.05 | 92 | 1044.2 |
| 20260901044505 | 24 | 206 | 3.2 | 4.8 | 0.00 | 0.05 | 0.05 | 92 | 1044.4 |
| 20260901043603 | 24 | 204 | 3.2 | 4.8 | 0.00 | 0.05 | 0.05 | 92 | 1044.4 |
| 20260901042703 | 24 | 208 | 1.6 | 3.2 | 0.00 | 0.05 | 0.05 | 92 | 1044.7 |
| 20260901041803 | 24 | 209 | 3.2 | 3.2 | 0.00 | 0.05 | 0.05 | 92 | 1044.6 |
| 20260901041114 | 24 | 203 | 3.2 | 4.8 | 0.00 | 0.05 | 0.05 | 91 | 1044.5 |
| 20260901040003 | 24 | 203 | 3.2 | 4.8 | 0.00 | 0.05 | 0.05 | 91 | 1044.4 |
| 20260901035403 | 24 | 209 | 1.6 | 4.8 | 0.00 | 0.05 | 0.05 | 91 | 1044.5 |
| 20260901034503 | 24 | 213 | 1.6 | 3.2 | 0.00 | 0.05 | 0.05 | 91 | 1044.4 |
| 20260901033603 | 24 | 222 | 1.6 | 3.2 | 0.00 | 0.05 | 0.05 | 91 | 1044.6 |
| 20260901032703 | 25 | 242 | 0.0 | 1.6 | 0.00 | 0.05 | 0.05 | 90 | 1044.8 |
| 20260901031803 | 25 | 236 | 0.0 | 1.6 | 0.00 | 0.05 | 0.05 | 89 | 1044.5 |
| 20260901030903 | 25 | 214 | 0.0 | 3.2 | 0.00 | 0.05 | 0.05 | 88 | 1044.5 |
| 20260901030003 | 25 | 194 | 1.6 | 4.8 | 0.00 | 0.05 | 0.05 | 88 | 1044.6 |
| 20260901025403 | 25 | 191 | 3.2 | 4.8 | 0.00 | 0.05 | 0.05 | 88 | 1044.8 |
| 20260901024503 | 25 | 206 | 1.6 | 4.8 | 0.00 | 0.05 | 0.05 | 88 | 1044.7 |
| 20260901023603 | 26 | 187 | 3.2 | 6.4 | 0.00 | 0.05 | 0.05 | 86 | 1044.6 |
| 20260901022703 | 26 | 181 | 3.2 | 4.8 | 0.00 | 0.05 | 0.05 | 86 | 1044.8 |
| 20260901021803 | 25 | 160 | 1.6 | 4.8 | 0.00 | 0.08 | 0.05 | 89 | 1044.6 |
| 20260901021113 | 25 | 273 | 0.0 | 3.2 | 0.00 | 0.08 | 0.05 | 88 | 1044.9 |
| 20260901020214 | 26 | 281 | 0.0 | 1.6 | 0.00 | 0.08 | 0.05 | 87 | 1044.8 |
| 20260901015403 | 26 | 11 | 0.0 | 3.2 | 0.00 | 0.08 | 0.05 | 87 | 1044.8 |
| 20260901014503 | 26 | 28 | 0.0 | 3.2 | 0.00 | 0.08 | 0.05 | 87 | 1044.6 |
| 20260901013603 | 26 | 179 | 1.6 | 9.7 | 0.00 | 0.10 | 0.05 | 86 | 1044.4 |
| 20260901012703 | 26 | 171 | 4.8 | 8.0 | 0.00 | 0.10 | 0.05 | 86 | 1044.3 |
| 20260901011803 | 26 | 171 | 4.8 | 8.0 | 0.00 | 0.10 | 0.05 | 86 | 1044.2 |
| 20260901010903 | 26 | 179 | 3.2 | 8.0 | 0.00 | 0.13 | 0.05 | 86 | 1044.1 |
| 20260901010003 | 26 | 176 | 4.8 | 9.7 | 0.00 | 0.13 | 0.05 | 86 | 1043.9 |
| 20260901005403 | 26 | 182 | 3.2 | 8.0 | 0.00 | 0.15 | 0.05 | 86 | 1044.0 |
| 20260901004503 | 27 | 169 | 0.0 | 3.2 | 0.00 | 0.15 | 0.05 | 85 | 1044.2 |
| 20260901003603 | 27 | 169 | 1.6 | 4.8 | 0.00 | 0.15 | 0.05 | 83 | 1044.4 |
| 20260901002703 | 27 | 190 | 1.6 | 4.8 | 0.00 | 0.15 | 0.05 | 83 | 1044.2 |
| 20260901002013 | 27 | 184 | 1.6 | 4.8 | 0.00 | 0.15 | 0.05 | 82 | 1044.2 |
| 20260901000903 | 28 | 219 | 0.0 | 3.2 | 0.00 | 0.15 | 0.05 | 83 | 1043.9 |
| 20260901000003 | 28 | 238 | 0.0 | 3.2 | 0.00 | 0.15 | 0.05 | 83 | 1043.9 |
| 20260831235613 | 28 | 221 | 1.6 | 4.8 | 0.00 | 0.15 | 0.05 | 82 | 1043.8 |
| 20260831234713 | 28 | 213 | 3.2 | 6.4 | 0.00 | 0.15 | 0.05 | 82 | 1043.5 |
| 20260831233603 | 28 | 195 | 1.6 | 8.0 | 0.00 | 0.15 | 0.05 | 81 | 1043.3 |
| 20260831232703 | 28 | 186 | 6.4 | 12.9 | 0.00 | 0.15 | 0.05 | 81 | 1042.9 |
| 20260831231804 | 28 | 183 | 6.4 | 12.9 | 0.00 | 0.15 | 0.05 | 81 | 1042.2 |
| 20260831230903 | 28 | 208 | 3.2 | 6.4 | 0.00 | 0.15 | 0.05 | 81 | 1044.0 |
| 20260831230213 | 28 | 254 | 1.6 | 6.4 | 0.00 | 0.15 | 0.05 | 83 | 1044.4 |
| 20260831225613 | 28 | 258 | 1.6 | 3.2 | 0.00 | 0.15 | 0.05 | 83 | 1044.6 |
| 20260831224503 | 28 | 218 | 3.2 | 4.8 | 0.00 | 0.15 | 0.05 | 80 | 1043.8 |
| 20260831223603 | 29 | 218 | 3.2 | 6.4 | 0.00 | 0.15 | 0.05 | 79 | 1043.5 |
| 20260831222703 | 29 | 194 | 3.2 | 4.8 | 0.00 | 0.18 | 0.05 | 81 | 1043.4 |
| 20260831221803 | 29 | 240 | 1.6 | 3.2 | 0.00 | 0.18 | 0.05 | 78 | 1043.7 |
| 20260831220903 | 30 | 230 | 1.6 | 6.4 | 0.00 | 0.20 | 0.05 | 75 | 1043.7 |
| 20260831220003 | 29 | 221 | 3.2 | 6.4 | 0.00 | 0.20 | 0.05 | 74 | 1043.8 |
| 20260831215403 | 29 | 225 | 3.2 | 6.4 | 0.00 | 0.20 | 0.05 | 73 | 1043.8 |
| 20260831214503 | 30 | 219 | 3.2 | 8.0 | 0.00 | 0.20 | 0.05 | 72 | 1043.5 |
| 20260831213603 | 30 | 203 | 4.8 | 8.0 | 0.00 | 0.20 | 0.05 | 72 | 1043.5 |
| 20260831212912 | 30 | 181 | 4.8 | 11.3 | 0.00 | 0.20 | 0.05 | 70 | 1043.3 |
| 20260831211803 | 30 | 195 | 4.8 | 12.9 | 0.00 | 0.20 | 0.05 | 71 | 1043.3 |
| 20260831210903 | 30 | 189 | 4.8 | 12.9 | 0.00 | 0.20 | 0.05 | 72 | 1043.0 |
| 20260831210003 | 30 | 157 | 8.0 | 19.3 | 0.00 | 0.20 | 0.05 | 71 | 1042.9 |
| 20260831205403 | 30 | 168 | 6.4 | 19.3 | 0.00 | 0.20 | 0.05 | 71 | 1043.3 |
| 20260831204713 | 31 | 169 | 4.8 | 11.3 | 0.00 | 0.23 | 0.05 | 71 | 1043.2 |
| 20260831203603 | 31 | 187 | 3.2 | 9.7 | 0.00 | 0.23 | 0.05 | 68 | 1043.4 |
| 20260831202703 | 31 | 219 | 3.2 | 9.7 | 0.00 | 0.23 | 0.05 | 68 | 1043.6 |
| 20260831201803 | 30 | 200 | 3.2 | 6.4 | 0.00 | 0.23 | 0.05 | 73 | 1043.9 |
| 20260831201113 | 30 | 192 | 1.6 | 4.8 | 0.00 | 0.23 | 0.05 | 73 | 1043.8 |
| 20260831200003 | 30 | 214 | 3.2 | 8.0 | 0.00 | 0.23 | 0.05 | 71 | 1044.2 |
| 20260831195614 | 30 | 225 | 3.2 | 8.0 | 0.00 | 0.23 | 0.05 | 70 | 1044.1 |
| 20260831194503 | 30 | 228 | 3.2 | 9.7 | 0.00 | 0.23 | 0.05 | 70 | 1044.1 |
| 20260831193603 | 30 | 202 | 4.8 | 9.7 | 0.00 | 0.25 | 0.05 | 70 | 1043.9 |
| 20260831192703 | 30 | 207 | 6.4 | 12.9 | 0.00 | 0.25 | 0.05 | 71 | 1043.9 |
| 20260831191803 | 28 | 198 | 4.8 | 9.7 | 0.00 | 0.28 | 0.05 | 73 | 1043.7 |
| 20260831190903 | 29 | 203 | 6.4 | 12.9 | 0.00 | 0.28 | 0.05 | 69 | 1043.9 |
| 20260831190003 | 30 | 203 | 6.4 | 12.9 | 0.00 | 0.28 | 0.05 | 66 | 1043.8 |
| 20260831185403 | 30 | 204 | 8.0 | 14.5 | 0.00 | 0.28 | 0.05 | 66 | 1044.0 |
| 20260831184503 | 30 | 208 | 6.4 | 16.1 | 0.00 | 0.28 | 0.05 | 63 | 1044.1 |
| 20260831183814 | 30 | 205 | 6.4 | 16.1 | 0.00 | 0.28 | 0.05 | 63 | 1044.2 |
| 20260831182703 | 30 | 209 | 8.0 | 17.7 | 0.00 | 0.30 | 0.05 | 64 | 1044.1 |
| 20260831181803 | 30 | 203 | 8.0 | 17.7 | 0.00 | 0.30 | 0.05 | 64 | 1044.1 |
| 20260831180903 | 29 | 195 | 8.0 | 16.1 | 0.00 | 0.30 | 0.05 | 65 | 1044.0 |
| 20260831180003 | 30 | 199 | 9.7 | 19.3 | 0.00 | 0.30 | 0.05 | 63 | 1044.2 |
| 20260831175403 | 30 | 200 | 9.7 | 19.3 | 0.00 | 0.30 | 0.05 | 65 | 1044.1 |
| 20260831174503 | 30 | 187 | 11.3 | 22.5 | 0.00 | 0.30 | 0.05 | 63 | 1044.1 |
| 20260831173603 | 29 | 190 | 9.7 | 17.7 | 0.00 | 0.30 | 0.05 | 65 | 1044.3 |
| 20260831172703 | 28 | 193 | 9.7 | 22.5 | 0.00 | 0.30 | 0.05 | 68 | 1044.4 |
| 20260831171803 | 28 | 191 | 8.0 | 22.5 | 0.00 | 0.30 | 0.05 | 67 | 1044.6 |
| 20260831170903 | 28 | 188 | 8.0 | 19.3 | 0.00 | 0.30 | 0.05 | 67 | 1044.8 |
| 20260831170003 | 28 | 196 | 8.0 | 20.9 | 0.00 | 0.30 | 0.05 | 68 | 1044.8 |
| 20260831165403 | 27 | 186 | 8.0 | 20.9 | 0.00 | 0.30 | 0.05 | 68 | 1044.9 |
| 20260831164503 | 27 | 172 | 9.7 | 22.5 | 0.00 | 0.30 | 0.05 | 69 | 1045.1 |
| 20260831163603 | 27 | 179 | 8.0 | 22.5 | 0.00 | 0.30 | 0.05 | 69 | 1045.0 |
| 20260831162703 | 26 | 177 | 9.7 | 20.9 | 0.00 | 0.30 | 0.05 | 71 | 1044.8 |
| 20260831161803 | 26 | 175 | 9.7 | 22.5 | 0.00 | 0.30 | 0.05 | 71 | 1044.9 |
| 20260831160903 | 26 | 176 | 9.7 | 24.1 | 0.00 | 0.30 | 0.05 | 72 | 1045.0 |
| 20260831160003 | 25 | 175 | 8.0 | 17.7 | 0.00 | 0.30 | 0.05 | 73 | 1045.0 |
| 20260831155403 | 25 | 175 | 6.4 | 14.5 | 0.00 | 0.30 | 0.05 | 74 | 1045.2 |
| 20260831154503 | 25 | 179 | 8.0 | 16.1 | 0.00 | 0.30 | 0.05 | 74 | 1045.1 |
| 20260831153603 | 25 | 174 | 6.4 | 14.5 | 0.00 | 0.30 | 0.05 | 76 | 1045.2 |
| 20260831152703 | 24 | 176 | 6.4 | 17.7 | 0.00 | 0.30 | 0.05 | 78 | 1045.3 |
| 20260831151803 | 24 | 173 | 6.4 | 14.5 | 0.00 | 0.30 | 0.05 | 77 | 1045.2 |
| 20260831150903 | 23 | 178 | 6.4 | 12.9 | 0.00 | 0.30 | 0.05 | 79 | 1045.2 |
| 20260831150003 | 23 | 174 | 6.4 | 11.3 | 0.00 | 0.30 | 0.05 | 80 | 1045.6 |
| 20260831145403 | 23 | 175 | 6.4 | 14.5 | 0.00 | 0.30 | 0.05 | 81 | 1045.2 |
| 20260831144503 | 23 | 174 | 6.4 | 16.1 | 0.00 | 0.30 | 0.05 | 81 | 1045.2 |
| 20260831143603 | 23 | 174 | 4.8 | 12.9 | 0.00 | 0.30 | 0.05 | 82 | 1045.1 |
| 20260831142703 | 23 | 171 | 6.4 | 16.1 | 0.00 | 0.30 | 0.05 | 82 | 1045.2 |
| 20260831141803 | 22 | 175 | 6.4 | 17.7 | 0.00 | 0.30 | 0.05 | 82 | 1045.2 |
| 20260831140903 | 22 | 179 | 4.8 | 11.3 | 0.00 | 0.30 | 0.05 | 84 | 1044.9 |
| 20260831140003 | 22 | 179 | 4.8 | 11.3 | 0.00 | 0.30 | 0.05 | 85 | 1045.0 |
| 20260831135403 | 22 | 176 | 4.8 | 11.3 | 0.00 | 0.30 | 0.05 | 84 | 1045.0 |
| 20260831134503 | 22 | 177 | 6.4 | 11.3 | 0.00 | 0.30 | 0.05 | 85 | 1045.1 |
| 20260831133603 | 22 | 179 | 4.8 | 12.9 | 0.00 | 0.30 | 0.05 | 85 | 1045.1 |
| 20260831132703 | 21 | 173 | 4.8 | 11.3 | 0.00 | 0.30 | 0.05 | 85 | 1045.1 |
| 20260831131803 | 21 | 172 | 4.8 | 11.3 | 0.00 | 0.30 | 0.05 | 84 | 1045.2 |
| 20260831131114 | 21 | 171 | 6.4 | 11.3 | 0.00 | 0.30 | 0.05 | 84 | 1045.1 |
| 20260831130003 | 21 | 173 | 4.8 | 9.7 | 0.00 | 0.30 | 0.05 | 84 | 1045.0 |
| 20260831125403 | 21 | 177 | 4.8 | 9.7 | 0.00 | 0.30 | 0.05 | 85 | 1045.0 |
| 20260831124712 | 21 | 171 | 4.8 | 11.3 | 0.03 | 0.30 | 0.05 | 85 | 1045.0 |
| 20260831123603 | 21 | 171 | 4.8 | 14.5 | 0.03 | 0.33 | 0.05 | 85 | 1045.1 |
| 20260831122703 | 21 | 166 | 4.8 | 14.5 | 0.03 | 0.36 | 0.05 | 85 | 1044.9 |
| 20260831121803 | 21 | 166 | 4.8 | 12.9 | 0.03 | 0.36 | 0.05 | 85 | 1045.0 |
| 20260831120903 | 21 | 145 | 3.2 | 8.0 | 0.03 | 0.36 | 0.05 | 87 | 1045.1 |
| 20260831120213 | 21 | 132 | 3.2 | 8.0 | 0.03 | 0.36 | 0.03 | 87 | 1045.0 |
| 20260831115403 | 21 | 160 | 3.2 | 9.7 | 0.03 | 0.36 | 0.03 | 85 | 1044.9 |
| 20260831114503 | 21 | 172 | 4.8 | 9.7 | 0.00 | 0.36 | 0.00 | 83 | 1044.8 |
| 20260831113603 | 21 | 167 | 3.2 | 6.4 | 0.00 | 0.41 | 0.00 | 84 | 1044.5 |
| 20260831112703 | 21 | 171 | 4.8 | 8.0 | 0.00 | 0.43 | 0.00 | 84 | 1044.5 |
| 20260831111803 | 21 | 169 | 4.8 | 16.1 | 0.00 | 0.43 | 0.00 | 84 | 1044.5 |
| 20260831110903 | 21 | 164 | 6.4 | 12.9 | 0.00 | 0.43 | 0.00 | 84 | 1044.4 |